メインページ
METAR-TAF:

METAR-TAF

空港 :

キーシュ国際空港

キーシュ島, イラン

緯度: 26-31-36N, 経度: 053-58-54E, 海抜: 30m

現時点の気象観測

当レポートは26分前の18:00(UTC)に作成
の風 8kt
気温 24°C
湿度 65%
気圧 1017 hPa
視程: 6000m
高度3000ftの雲はほとんどない

METAR: OIBK 171800Z 08008KT 6000 FEW030 24/17 Q1017

時間: 21:56 (18:26 UTC)

予報

当レポートは6時間56分前の11:30(UTC)に作成
予報は17日の 12時(UTC)から 18日の 18時(UTC)まで有効
の風 8kt
視程: 6000m
高度2500ftの雲はほとんどない, 積乱雲.
高度3000ftの雲は散在している
高度10000ftの千切れ雲あり
17日の 12時(UTC)から 17日の 18時(UTC)まで一時的に
東/南東の風 20kt
視程: 3000m
高度2500ftの雲は散在している, 積乱雲.
高度3000ftの雲は散在している
高度9000ftの曇り
激しい雷雨, 雨
18日の 06時(UTC)から 18日の 18時(UTC)まで一時的に
東/南東の風 20kt
視程: 3000m
高度2500ftの雲は散在している, 積乱雲.
高度3000ftの雲は散在している
高度9000ftの曇り
激しい雷雨, 雨

TAF: OIBK 171130Z 1712/1818 08008KT 6000 FEW025CB SCT030 BKN100 TEMPO 1712/1718 12020KT 3000 TSRA SCT025CB SCT030 OVC090 TEMPO 1806/1818 12020KT 3000 TSRA SCT025CB SCT030 OVC090

4,000以上の空港の気象観測と天気予報(METAR報とTAF報)

利用可能な観測所は地図上に黄色い丸と赤い丸で示す。

丸の上にカーソルを重ねると観測所名を参照できる。

次にクリックすると気象観測と天気予報を参照できる。

マップの切り替え:黒色「×」印の緑ボタンをクリックして拡大、「-」印の緑ボタンをクリックして縮小、緑色の三角印をクリックして隣りの地図に切り替え


METAR-TAF: